Time;durP1;ratioP1;P1;durP2;ratioP2;P2;SDS_P1;SDS_P2;PMS_P1;PMS_P2;Temp;Humidity;BMP_temperature;BMP_pressure;BME280_temperature;BME280_humidity;BME280_pressure;Samples;Min_cycle;Max_cycle;Signal;HPM_P1;HPM_P2
2021/07/04 00:01:31;;;;;;;3.80;2.50;;;20.40;84.10;;;;;;4888352;29;20466;-80
2021/07/04 00:03:57;;;;;;;4.75;3.00;;;20.40;84.10;;;;;;4874698;29;20029;-79
2021/07/04 00:06:22;;;;;;;3.03;2.50;;;20.40;84.40;;;;;;4881844;29;20054;-78
2021/07/04 00:08:48;;;;;;;4.22;2.70;;;20.30;84.40;;;;;;4882738;29;20035;-79
2021/07/04 00:11:14;;;;;;;3.63;2.55;;;20.40;84.50;;;;;;4875730;29;20037;-79
2021/07/04 00:13:39;;;;;;;3.17;2.60;;;20.40;84.60;;;;;;4872818;29;20539;-78
2021/07/04 00:16:06;;;;;;;3.92;2.75;;;20.40;85.30;;;;;;4885303;29;20115;-78
2021/07/04 00:18:33;;;;;;;4.63;2.90;;;20.30;84.60;;;;;;4911881;29;20024;-78
2021/07/04 00:21:03;;;;;;;3.40;2.65;;;20.30;84.90;;;;;;4868923;29;20386;-80
2021/07/04 00:23:29;;;;;;;3.53;2.75;;;20.30;84.90;;;;;;4881994;29;20087;-79
2021/07/04 00:25:55;;;;;;;4.22;2.70;;;20.30;85.20;;;;;;4870398;29;20029;-79
2021/07/04 00:28:23;;;;;;;2.60;2.40;;;20.20;85.20;;;;;;4863268;29;20029;-80
2021/07/04 00:30:49;;;;;;;4.72;2.50;;;20.10;85.50;;;;;;4864607;29;20077;-79
2021/07/04 00:33:15;;;;;;;3.30;2.60;;;20.10;85.70;;;;;;4870575;29;20055;-80
2021/07/04 00:35:41;;;;;;;4.32;2.63;;;20.10;85.70;;;;;;4898575;29;20509;-79
2021/07/04 00:38:08;;;;;;;3.60;2.90;;;20.10;86.00;;;;;;4885239;29;20104;-78
2021/07/04 00:40:35;;;;;;;3.65;2.92;;;20.10;86.20;;;;;;4878009;29;20567;-78
2021/07/04 00:43:02;;;;;;;3.90;3.25;;;20.10;86.20;;;;;;4879998;29;20371;-78
2021/07/04 00:45:28;;;;;;;5.82;2.97;;;20.00;86.40;;;;;;4862726;29;20029;-78
2021/07/04 00:47:55;;;;;;;3.67;2.75;;;20.10;86.50;;;;;;4863676;29;20372;-78
2021/07/04 00:50:25;;;;;;;5.05;3.33;;;20.10;86.70;;;;;;4894739;29;20033;-78
2021/07/04 00:52:53;;;;;;;4.75;3.00;;;20.00;86.80;;;;;;4872380;29;20048;-81
2021/07/04 00:55:19;;;;;;;4.97;2.95;;;20.00;87.00;;;;;;4898380;29;20055;-81
2021/07/04 00:57:46;;;;;;;5.00;2.60;;;19.90;87.00;;;;;;4881998;29;20529;-80
2021/07/04 01:00:14;;;;;;;4.13;2.75;;;19.90;87.10;;;;;;4867773;29;20037;-79
2021/07/04 01:02:41;;;;;;;5.32;3.15;;;19.90;87.80;;;;;;4864943;29;20029;-79
2021/07/04 01:05:20;;;;;;;4.65;2.85;;;19.90;87.30;;;;;;4892500;29;20017;-78
2021/07/04 01:07:46;;;;;;;4.53;2.90;;;19.90;87.30;;;;;;4873516;29;20033;-78
2021/07/04 01:10:15;;;;;;;4.00;3.00;;;19.90;87.30;;;;;;4881485;29;20119;-79
2021/07/04 01:12:43;;;;;;;3.40;2.70;;;19.90;87.30;;;;;;4864797;29;20040;-78
2021/07/04 01:15:10;;;;;;;5.03;3.42;;;19.90;87.50;;;;;;4881585;29;20187;-78
2021/07/04 01:17:37;;;;;;;3.60;2.83;;;19.90;87.50;;;;;;4880944;29;20111;-80
2021/07/04 01:20:07;;;;;;;4.57;3.22;;;19.90;87.70;;;;;;4868211;29;20041;-80
2021/07/04 01:22:35;;;;;;;3.92;2.97;;;19.90;87.70;;;;;;4877624;29;20534;-79
2021/07/04 01:25:02;;;;;;;5.20;3.30;;;19.90;87.70;;;;;;4867984;29;20040;-79
2021/07/04 01:27:28;;;;;;;3.97;3.20;;;19.90;87.80;;;;;;4897522;29;20056;-79
2021/07/04 01:29:54;;;;;;;4.25;2.97;;;19.90;88.20;;;;;;4897417;29;20091;-76
2021/07/04 01:32:19;;;;;;;5.10;3.00;;;19.90;88.20;;;;;;4888038;29;20466;-77
2021/07/04 01:34:45;;;;;;;4.47;3.33;;;19.80;88.20;;;;;;4888654;29;20028;-77
2021/07/04 01:37:10;;;;;;;5.28;3.50;;;19.90;88.30;;;;;;4896596;29;20084;-77
2021/07/04 01:39:36;;;;;;;4.47;3.10;;;19.90;88.20;;;;;;4896754;29;20029;-77
2021/07/04 01:42:02;;;;;;;3.28;2.95;;;19.90;88.30;;;;;;4897181;29;20051;-77
2021/07/04 01:44:28;;;;;;;5.05;3.60;;;19.80;88.30;;;;;;4897540;29;20431;-77
2021/07/04 01:46:53;;;;;;;4.63;3.20;;;19.80;88.40;;;;;;4896699;29;20084;-77
2021/07/04 01:49:19;;;;;;;3.88;3.03;;;19.80;88.50;;;;;;4897384;29;20033;-77
2021/07/04 01:51:45;;;;;;;4.97;3.00;;;19.90;88.50;;;;;;4897749;29;20068;-77
2021/07/04 01:54:10;;;;;;;3.83;3.03;;;19.90;88.80;;;;;;4896400;29;20029;-77
2021/07/04 01:56:36;;;;;;;5.47;3.38;;;19.80;88.80;;;;;;4897200;29;20029;-77
2021/07/04 01:59:02;;;;;;;4.72;3.47;;;19.80;89.00;;;;;;4896769;29;20025;-77
2021/07/04 02:01:27;;;;;;;5.60;3.20;;;19.80;89.10;;;;;;4896122;29;20033;-77
2021/07/04 02:03:53;;;;;;;6.97;3.60;;;19.80;89.00;;;;;;4896526;29;20033;-77
2021/07/04 02:06:19;;;;;;;5.30;3.88;;;19.80;89.30;;;;;;4896686;29;20036;-77
2021/07/04 02:08:44;;;;;;;4.63;3.35;;;19.70;89.40;;;;;;4896509;29;20031;-77
2021/07/04 02:11:10;;;;;;;3.90;2.85;;;19.70;89.40;;;;;;4897922;29;20033;-77
2021/07/04 02:13:35;;;;;;;3.85;3.08;;;19.70;89.40;;;;;;4895882;29;20035;-77
2021/07/04 02:16:01;;;;;;;9.05;3.33;;;19.70;89.50;;;;;;4896724;29;20024;-77
2021/07/04 02:18:27;;;;;;;5.05;3.40;;;19.70;89.60;;;;;;4896080;29;20028;-77
2021/07/04 02:20:54;;;;;;;3.70;3.25;;;19.70;89.70;;;;;;4896402;29;20050;-77
2021/07/04 02:23:31;;;;;;;4.38;3.17;;;19.60;89.80;;;;;;4897158;29;20079;-78
2021/07/04 02:25:58;;;;;;;4.78;3.25;;;19.70;89.80;;;;;;4900578;29;20029;-77
2021/07/04 02:28:27;;;;;;;7.28;3.30;;;19.60;89.80;;;;;;4899030;29;20036;-78
2021/07/04 02:30:54;;;;;;;5.15;3.28;;;19.60;89.70;;;;;;4899474;29;20039;-77
2021/07/04 02:33:21;;;;;;;4.93;3.63;;;19.60;90.10;;;;;;4900866;29;20033;-77
2021/07/04 02:35:49;;;;;;;5.05;3.30;;;19.60;89.80;;;;;;4900911;29;20029;-78
2021/07/04 02:38:15;;;;;;;4.97;3.17;;;19.60;89.90;;;;;;4899271;29;20029;-77
2021/07/04 02:40:42;;;;;;;4.60;3.40;;;19.60;90.00;;;;;;4899221;29;20818;-77
2021/07/04 02:43:12;;;;;;;4.03;3.17;;;19.60;90.00;;;;;;4899569;29;20434;-77
2021/07/04 02:45:38;;;;;;;4.88;3.40;;;19.60;90.00;;;;;;4900210;29;20052;-76
2021/07/04 02:48:04;;;;;;;4.00;3.08;;;19.60;90.00;;;;;;4900861;29;20048;-77
2021/07/04 02:50:30;;;;;;;4.35;3.30;;;19.60;89.90;;;;;;4898425;29;20110;-76
2021/07/04 02:52:56;;;;;;;3.92;3.20;;;19.60;90.20;;;;;;4899413;29;20093;-77
2021/07/04 02:55:22;;;;;;;5.22;3.50;;;19.60;90.00;;;;;;4900766;29;20029;-77
2021/07/04 02:57:49;;;;;;;4.05;3.53;;;19.60;90.00;;;;;;4898889;29;20032;-77
2021/07/04 03:00:17;;;;;;;4.28;3.28;;;19.60;90.00;;;;;;4899072;29;20033;-77
2021/07/04 03:02:43;;;;;;;5.55;3.60;;;19.60;90.00;;;;;;4898769;29;20052;-77
2021/07/04 03:05:10;;;;;;;6.32;3.40;;;19.60;90.10;;;;;;4900290;29;20393;-77
2021/07/04 03:07:37;;;;;;;5.32;3.67;;;19.60;90.10;;;;;;4898916;29;20029;-77
2021/07/04 03:10:05;;;;;;;3.95;3.17;;;19.60;90.20;;;;;;4900333;29;20032;-77
2021/07/04 03:12:30;;;;;;;5.40;3.63;;;19.50;90.10;;;;;;4898721;29;20032;-78
2021/07/04 03:14:56;;;;;;;6.45;3.78;;;19.50;90.20;;;;;;4899188;29;20119;-77
2021/07/04 03:17:22;;;;;;;4.57;3.60;;;19.60;90.20;;;;;;4900454;29;20060;-77
2021/07/04 03:19:47;;;;;;;5.70;3.65;;;19.60;90.20;;;;;;4898223;29;20496;-77
2021/07/04 03:22:13;;;;;;;5.60;3.65;;;19.60;90.30;;;;;;4899947;29;20041;-77
2021/07/04 03:24:40;;;;;;;3.50;3.17;;;19.50;90.30;;;;;;4898355;29;20029;-77
2021/07/04 03:27:07;;;;;;;4.95;3.53;;;19.60;90.30;;;;;;4900243;29;20029;-77
2021/07/04 03:29:33;;;;;;;5.50;3.63;;;19.60;90.30;;;;;;4898349;29;20040;-77
2021/07/04 03:31:59;;;;;;;4.88;3.75;;;19.60;90.30;;;;;;4898371;29;20064;-77
2021/07/04 03:34:24;;;;;;;6.00;3.88;;;19.60;90.30;;;;;;4898223;29;20111;-79
2021/07/04 03:36:50;;;;;;;5.35;3.72;;;19.60;90.40;;;;;;4898851;29;20036;-77
2021/07/04 03:39:16;;;;;;;6.68;3.70;;;19.60;90.40;;;;;;4898402;29;20032;-77
2021/07/04 03:41:41;;;;;;;4.35;3.25;;;19.60;90.50;;;;;;4899034;29;20048;-77
2021/07/04 03:44:07;;;;;;;5.75;3.83;;;19.60;90.80;;;;;;4899745;29;20471;-77
2021/07/04 03:46:33;;;;;;;4.28;3.75;;;19.60;90.50;;;;;;4899115;29;20115;-77
2021/07/04 03:48:58;;;;;;;4.82;3.47;;;19.60;90.50;;;;;;4898645;29;20032;-78
2021/07/04 03:51:24;;;;;;;5.78;3.60;;;19.60;90.50;;;;;;4898006;29;20470;-78
2021/07/04 03:53:50;;;;;;;4.80;3.70;;;19.60;90.50;;;;;;4897585;29;20031;-78
2021/07/04 03:56:15;;;;;;;4.35;3.30;;;19.60;90.50;;;;;;4898380;29;20060;-78
2021/07/04 03:58:41;;;;;;;5.63;3.65;;;19.70;90.40;;;;;;4897846;29;20052;-79
2021/07/04 04:01:09;;;;;;;5.43;3.25;;;19.70;90.50;;;;;;4898254;29;20029;-78
2021/07/04 04:03:34;;;;;;;6.85;4.22;;;19.70;90.50;;;;;;4899021;29;20024;-78
2021/07/04 04:06:00;;;;;;;5.80;3.63;;;19.70;90.40;;;;;;4899478;29;20032;-78
2021/07/04 04:08:26;;;;;;;5.43;3.95;;;19.70;90.40;;;;;;4899210;29;20035;-78
2021/07/04 04:10:52;;;;;;;4.40;3.30;;;19.70;90.50;;;;;;4897870;29;20515;-77
2021/07/04 04:13:19;;;;;;;4.68;3.50;;;19.70;90.50;;;;;;4897774;29;20037;-78
2021/07/04 04:15:45;;;;;;;5.53;3.55;;;19.70;90.60;;;;;;4898675;29;20107;-78
2021/07/04 04:18:10;;;;;;;5.97;3.45;;;19.70;90.50;;;;;;4897963;29;20040;-78
2021/07/04 04:20:36;;;;;;;6.85;3.72;;;19.80;90.50;;;;;;4898759;29;20502;-78
2021/07/04 04:23:01;;;;;;;5.80;3.58;;;19.80;90.30;;;;;;4899019;29;20032;-78
2021/07/04 04:25:27;;;;;;;4.55;3.40;;;19.80;90.40;;;;;;4898828;29;20138;-79
2021/07/04 04:27:53;;;;;;;4.35;3.65;;;19.80;90.50;;;;;;4898684;29;20033;-78
2021/07/04 04:30:18;;;;;;;5.22;3.80;;;19.80;90.40;;;;;;4897706;29;20517;-78
2021/07/04 04:32:45;;;;;;;6.22;3.30;;;19.80;90.40;;;;;;4897400;29;20128;-78
2021/07/04 04:35:11;;;;;;;5.22;3.58;;;19.80;90.50;;;;;;4897664;29;20028;-78
2021/07/04 04:37:37;;;;;;;4.28;3.55;;;19.80;90.50;;;;;;4898280;29;20462;-78
2021/07/04 04:40:05;;;;;;;5.85;3.58;;;19.80;90.60;;;;;;4897400;29;20037;-78
2021/07/04 04:42:31;;;;;;;4.10;3.50;;;19.80;90.70;;;;;;4896711;29;20127;-79
2021/07/04 04:44:56;;;;;;;4.70;3.50;;;19.80;90.70;;;;;;4897330;29;20119;-78
2021/07/04 04:47:22;;;;;;;4.65;3.50;;;19.80;90.60;;;;;;4898128;29;20446;-78
2021/07/04 04:49:48;;;;;;;4.78;3.70;;;19.90;90.70;;;;;;4896563;29;20031;-78
2021/07/04 04:52:13;;;;;;;5.78;3.75;;;19.80;90.70;;;;;;4898514;29;20057;-78
2021/07/04 04:54:39;;;;;;;7.53;3.53;;;19.90;90.70;;;;;;4896755;29;20028;-78
2021/07/04 04:57:07;;;;;;;5.65;3.95;;;19.90;90.70;;;;;;4897212;29;20030;-78
2021/07/04 04:59:37;;;;;;;4.30;3.42;;;19.90;90.70;;;;;;4896891;29;20032;-79
2021/07/04 05:02:04;;;;;;;6.45;3.60;;;20.00;90.70;;;;;;4897244;29;20044;-79
2021/07/04 05:04:30;;;;;;;4.88;3.40;;;19.90;90.70;;;;;;4896935;29;20021;-80
2021/07/04 05:06:56;;;;;;;5.95;3.80;;;20.00;90.70;;;;;;4897461;29;20135;-79
2021/07/04 05:09:22;;;;;;;5.68;3.58;;;20.00;90.60;;;;;;4897221;29;20032;-78
2021/07/04 05:11:49;;;;;;;5.15;3.58;;;20.00;90.60;;;;;;4895770;29;20382;-78
2021/07/04 05:14:18;;;;;;;4.85;3.28;;;20.10;90.50;;;;;;4898107;29;20108;-78
2021/07/04 05:16:44;;;;;;;6.22;3.35;;;20.10;90.40;;;;;;4896210;29;20037;-78
2021/07/04 05:19:11;;;;;;;4.82;3.22;;;20.10;90.30;;;;;;4896635;29;20035;-78
2021/07/04 05:21:37;;;;;;;5.97;3.28;;;20.10;90.30;;;;;;4896294;29;20041;-78
2021/07/04 05:24:05;;;;;;;4.78;3.30;;;20.20;90.30;;;;;;4897966;29;20036;-78
2021/07/04 05:26:32;;;;;;;4.60;3.03;;;20.20;90.30;;;;;;4896773;29;20029;-80
2021/07/04 05:28:58;;;;;;;4.78;3.38;;;20.20;90.20;;;;;;4897946;29;20475;-78
2021/07/04 05:31:24;;;;;;;4.80;3.80;;;20.20;90.40;;;;;;4896621;29;20036;-78
2021/07/04 05:33:50;;;;;;;3.65;3.03;;;20.30;90.20;;;;;;4895741;29;20035;-78
2021/07/04 05:36:16;;;;;;;5.93;3.35;;;20.30;90.20;;;;;;4897737;29;20036;-78
2021/07/04 05:38:43;;;;;;;5.30;3.00;;;20.40;90.20;;;;;;4896181;29;20100;-78
2021/07/04 05:41:13;;;;;;;6.25;3.58;;;20.40;90.00;;;;;;4897886;29;20028;-78
2021/07/04 05:43:41;;;;;;;6.53;3.72;;;20.40;89.90;;;;;;4897303;29;20059;-78
2021/07/04 05:46:07;;;;;;;4.28;3.20;;;20.40;89.40;;;;;;4897778;29;20024;-78
2021/07/04 05:48:34;;;;;;;5.15;3.17;;;20.50;89.50;;;;;;4896142;29;20028;-79
2021/07/04 05:50:59;;;;;;;4.30;3.10;;;20.60;89.40;;;;;;4897345;29;20068;-78
2021/07/04 05:53:25;;;;;;;3.92;3.30;;;20.50;89.40;;;;;;4896463;29;20505;-78
2021/07/04 05:55:51;;;;;;;4.70;3.50;;;20.50;89.20;;;;;;4895840;29;20473;-77
2021/07/04 05:58:17;;;;;;;3.90;2.85;;;20.60;89.40;;;;;;4896569;29;20079;-78
2021/07/04 06:00:43;;;;;;;4.40;3.13;;;20.60;89.40;;;;;;4898734;29;20029;-78
2021/07/04 06:03:08;;;;;;;4.18;2.95;;;20.60;89.30;;;;;;4900194;29;20051;-78
2021/07/04 06:05:34;;;;;;;5.05;3.47;;;20.70;89.40;;;;;;4900752;29;20024;-79
2021/07/04 06:08:00;;;;;;;4.20;3.15;;;20.70;89.20;;;;;;4901149;29;20486;-78
2021/07/04 06:10:26;;;;;;;4.70;3.03;;;20.70;89.30;;;;;;4900136;29;20096;-78
2021/07/04 06:12:52;;;;;;;4.03;3.60;;;20.70;89.20;;;;;;4900609;29;20043;-78
2021/07/04 06:15:17;;;;;;;4.18;3.45;;;20.70;89.30;;;;;;4901044;29;20478;-78
2021/07/04 06:17:43;;;;;;;5.80;3.10;;;20.80;89.10;;;;;;4900993;29;20535;-78
2021/07/04 06:20:11;;;;;;;4.93;3.38;;;20.80;88.90;;;;;;4899587;29;20051;-76
2021/07/04 06:22:37;;;;;;;4.03;3.10;;;20.80;89.00;;;;;;4899494;29;20069;-78
2021/07/04 06:25:05;;;;;;;14.80;9.93;;;20.90;89.10;;;;;;4899291;29;20033;-78
2021/07/04 06:27:30;;;;;;;5.50;4.55;;;20.90;88.90;;;;;;4900845;29;20112;-78
2021/07/04 06:29:56;;;;;;;5.28;3.50;;;21.00;88.30;;;;;;4899058;29;20071;-77
2021/07/04 06:32:22;;;;;;;4.68;2.85;;;21.00;87.70;;;;;;4896282;29;20028;-78
2021/07/04 06:34:47;;;;;;;5.07;3.20;;;21.10;87.50;;;;;;4900354;29;20474;-78
2021/07/04 06:37:13;;;;;;;4.10;3.38;;;21.20;87.20;;;;;;4899513;29;20056;-78
2021/07/04 06:39:39;;;;;;;5.15;3.25;;;21.20;87.00;;;;;;4900048;29;20104;-78
2021/07/04 06:42:05;;;;;;;5.38;3.00;;;21.10;87.10;;;;;;4885997;29;20092;-78
2021/07/04 06:44:31;;;;;;;5.25;3.50;;;21.20;87.30;;;;;;4883824;29;20036;-78
2021/07/04 06:46:57;;;;;;;4.05;3.00;;;21.20;87.20;;;;;;4883145;29;20032;-78
2021/07/04 06:49:22;;;;;;;5.38;3.53;;;21.20;86.80;;;;;;4883561;29;20035;-78
2021/07/04 06:51:48;;;;;;;5.13;3.00;;;21.20;86.50;;;;;;4899321;29;20071;-78
2021/07/04 06:54:14;;;;;;;5.20;3.40;;;21.30;86.20;;;;;;4899221;29;20032;-77
2021/07/04 06:56:40;;;;;;;3.85;2.97;;;21.20;86.10;;;;;;4899782;29;20040;-78
2021/07/04 06:59:06;;;;;;;4.90;2.90;;;21.30;86.60;;;;;;4900418;29;20024;-77
2021/07/04 07:01:32;;;;;;;5.18;3.65;;;21.30;86.50;;;;;;4900147;29;20119;-77
2021/07/04 07:03:58;;;;;;;4.57;2.72;;;21.30;86.50;;;;;;4882998;29;20064;-77
2021/07/04 07:06:25;;;;;;;5.15;3.30;;;21.30;86.80;;;;;;4900386;29;20036;-78
2021/07/04 07:08:51;;;;;;;4.43;2.97;;;21.30;87.00;;;;;;4882919;29;20088;-78
2021/07/04 07:11:17;;;;;;;4.38;3.20;;;21.30;86.70;;;;;;4899358;29;20427;-78
2021/07/04 07:13:42;;;;;;;6.18;3.20;;;21.30;87.00;;;;;;4898560;29;20032;-79
2021/07/04 07:16:08;;;;;;;6.07;3.40;;;21.30;87.00;;;;;;4900289;29;20025;-78
2021/07/04 07:18:34;;;;;;;4.57;3.63;;;21.30;86.40;;;;;;4900248;29;20029;-78
2021/07/04 07:21:00;;;;;;;4.30;3.58;;;21.30;86.40;;;;;;4882804;29;20028;-78
2021/07/04 07:23:25;;;;;;;4.80;3.45;;;21.40;86.10;;;;;;4883207;29;20028;-78
2021/07/04 07:25:51;;;;;;;4.50;3.60;;;21.40;86.00;;;;;;4899454;29;20039;-78
2021/07/04 07:28:17;;;;;;;6.35;3.72;;;21.50;86.00;;;;;;4899977;29;20028;-78
2021/07/04 07:30:43;;;;;;;4.50;3.63;;;21.60;85.60;;;;;;4897814;29;20024;-78
2021/07/04 07:33:08;;;;;;;5.38;3.80;;;21.70;85.20;;;;;;4883062;29;20037;-77
2021/07/04 07:35:34;;;;;;;5.03;3.60;;;21.70;85.40;;;;;;4878751;29;20115;-78
2021/07/04 07:38:02;;;;;;;7.18;3.72;;;21.80;85.00;;;;;;4864090;29;20120;-78
2021/07/04 07:40:36;;;;;;;5.28;3.30;;;21.90;84.90;;;;;;4867036;29;20479;-77
2021/07/04 07:43:05;;;;;;;6.03;3.38;;;21.90;84.70;;;;;;4882371;29;20080;-77
2021/07/04 07:45:31;;;;;;;4.88;3.40;;;22.00;84.30;;;;;;4878977;29;20117;-77
2021/07/04 07:47:57;;;;;;;5.00;3.58;;;22.00;84.00;;;;;;4880239;29;20066;-78
2021/07/04 07:50:22;;;;;;;5.20;3.60;;;22.00;84.40;;;;;;4866174;29;20475;-78
2021/07/04 07:52:48;;;;;;;4.25;3.17;;;22.10;84.50;;;;;;4881868;29;20063;-77
2021/07/04 07:55:14;;;;;;;8.38;3.28;;;22.10;83.70;;;;;;4898734;29;20042;-78
2021/07/04 07:57:42;;;;;;;4.43;3.15;;;22.20;83.40;;;;;;4882398;29;20055;-79
2021/07/04 08:00:10;;;;;;;7.20;3.90;;;22.20;82.70;;;;;;4898960;29;20509;-77
2021/07/04 08:02:37;;;;;;;4.50;3.25;;;22.10;82.80;;;;;;4882431;29;20497;-78
2021/07/04 08:05:04;;;;;;;6.63;3.10;;;22.20;82.70;;;;;;4881890;29;20024;-77
2021/07/04 08:07:29;;;;;;;6.63;3.55;;;22.20;82.70;;;;;;4897573;29;20046;-77
2021/07/04 08:09:55;;;;;;;4.53;3.22;;;22.30;82.50;;;;;;4897229;29;20506;-78
2021/07/04 08:12:21;;;;;;;6.88;3.60;;;22.30;82.50;;;;;;4897590;29;20040;-78
2021/07/04 08:14:46;;;;;;;6.40;3.75;;;22.30;83.10;;;;;;4888643;29;20032;-78
2021/07/04 08:17:12;;;;;;;4.75;3.78;;;22.20;81.90;;;;;;4898663;29;20028;-78
2021/07/04 08:19:38;;;;;;;5.85;3.53;;;22.20;82.40;;;;;;4887788;29;20021;-78
2021/07/04 08:22:04;;;;;;;5.10;3.67;;;22.20;82.30;;;;;;4897200;29;20581;-77
2021/07/04 08:24:29;;;;;;;5.57;3.97;;;22.20;82.50;;;;;;4881596;29;20028;-79
2021/07/04 08:26:55;;;;;;;6.63;4.00;;;22.20;82.40;;;;;;4885678;29;20173;-79
2021/07/04 08:29:21;;;;;;;5.95;3.60;;;22.20;81.90;;;;;;4884602;29;20052;-79
2021/07/04 08:31:47;;;;;;;5.13;3.80;;;22.20;82.20;;;;;;4897905;29;20107;-78
2021/07/04 08:34:13;;;;;;;5.15;3.47;;;22.30;82.10;;;;;;4895712;29;20505;-78
2021/07/04 08:36:39;;;;;;;4.15;3.35;;;22.30;81.50;;;;;;4888047;29;20492;-82
2021/07/04 08:39:06;;;;;;;4.22;3.65;;;22.30;81.80;;;;;;4882817;29;20103;-80
2021/07/04 08:41:32;;;;;;;5.75;3.90;;;22.40;81.80;;;;;;4885537;29;20040;-80
2021/07/04 08:44:05;;;;;;;5.18;4.13;;;22.60;81.30;;;;;;4862813;29;20033;-80
2021/07/04 08:46:31;;;;;;;6.53;4.25;;;22.70;80.90;;;;;;4863924;29;20029;-81
2021/07/04 08:48:56;;;;;;;5.45;4.70;;;22.80;80.00;;;;;;4879402;29;20112;-80
2021/07/04 08:51:22;;;;;;;5.65;4.03;;;22.80;80.00;;;;;;4880103;29;20060;-80
2021/07/04 08:53:49;;;;;;;8.23;4.45;;;22.80;79.50;;;;;;4879696;29;20029;-80
2021/07/04 08:56:14;;;;;;;6.10;4.40;;;22.90;79.20;;;;;;4864072;29;20029;-81
2021/07/04 08:58:40;;;;;;;5.45;3.83;;;23.00;79.00;;;;;;4863771;29;20033;-81
2021/07/04 09:01:22;;;;;;;8.32;3.92;;;23.00;78.50;;;;;;4862838;29;20100;-80
2021/07/04 09:03:54;;;;;;;8.45;3.92;;;23.10;78.60;;;;;;4877929;29;20398;-80
2021/07/04 09:06:41;;;;;;;;;;;23.10;78.70;;;;;;4883012;29;20035;-80
2021/07/04 09:09:30;;;;;;;6.00;3.80;;;23.00;78.80;;;;;;4881287;29;19907;-79
2021/07/04 09:12:08;;;;;;;5.28;3.72;;;23.00;79.00;;;;;;4881231;29;20549;-79
2021/07/04 09:14:45;;;;;;;5.07;3.70;;;23.00;79.50;;;;;;4881963;29;20135;-80
2021/07/04 09:17:16;;;;;;;7.03;3.67;;;23.00;79.30;;;;;;4898316;29;20028;-80
2021/07/04 09:19:53;;;;;;;6.07;4.43;;;23.00;79.70;;;;;;4898731;29;20088;-80
2021/07/04 09:22:36;;;;;;;5.90;3.85;;;22.90;79.70;;;;;;4898125;29;20500;-79
2021/07/04 09:25:28;;;;;;;5.10;3.90;;;23.00;79.50;;;;;;4881018;29;20056;-79
2021/07/04 09:28:00;;;;;;;;;;;23.00;79.40;;;;;;4881609;29;20080;-80
2021/07/04 09:30:41;;;;;;;7.05;3.53;;;23.00;79.80;;;;;;4897482;29;19930;-81
2021/07/04 09:33:17;;;;;;;5.43;3.55;;;23.10;79.20;;;;;;4898170;29;20033;-81
2021/07/04 09:36:06;;;;;;;5.68;3.70;;;23.10;79.20;;;;;;4895385;29;20119;-80
2021/07/04 09:38:35;;;;;;;5.13;3.60;;;23.10;79.20;;;;;;4895365;29;20463;-79
2021/07/04 09:41:02;;;;;;;4.35;3.60;;;23.10;79.30;;;;;;4895879;29;20089;-79
2021/07/04 09:43:29;;;;;;;5.30;3.35;;;23.20;79.70;;;;;;4910705;29;20029;-79
2021/07/04 09:46:04;;;;;;;3.50;3.20;;;23.20;78.90;;;;;;4887278;29;20025;-78
2021/07/04 09:48:29;;;;;;;5.60;3.08;;;23.20;78.30;;;;;;4907794;29;20572;-79
2021/07/04 09:51:01;;;;;;;5.65;3.47;;;23.20;78.70;;;;;;4908769;29;20119;-80
2021/07/04 09:53:33;;;;;;;5.38;3.10;;;23.40;79.20;;;;;;4934387;29;20040;-80
2021/07/04 09:56:12;;;;;;;5.78;3.42;;;23.40;78.90;;;;;;4916789;29;20029;-80
2021/07/04 09:58:39;;;;;;;5.40;3.67;;;23.40;78.40;;;;;;4897949;29;20107;-79
2021/07/04 10:01:06;;;;;;;4.50;3.22;;;23.40;78.00;;;;;;4903741;29;20028;-79
2021/07/04 10:03:32;;;;;;;4.20;2.72;;;23.40;78.20;;;;;;4903108;29;20111;-78
2021/07/04 10:05:58;;;;;;;4.63;3.45;;;23.20;77.50;;;;;;4902416;29;20120;-78
2021/07/04 10:08:36;;;;;;;4.82;3.20;;;23.10;78.90;;;;;;4902523;29;20131;-78
2021/07/04 10:11:05;;;;;;;4.30;2.92;;;23.10;80.10;;;;;;4902010;29;20036;-78
2021/07/04 10:13:33;;;;;;;4.13;2.90;;;23.10;79.30;;;;;;4900907;29;20036;-77
2021/07/04 10:15:59;;;;;;;7.20;3.20;;;23.00;79.00;;;;;;4903356;29;20376;-78
2021/07/04 10:18:25;;;;;;;5.18;3.22;;;22.90;79.30;;;;;;4902597;29;20035;-79
2021/07/04 10:20:52;;;;;;;3.55;2.90;;;22.80;79.50;;;;;;4902876;29;20028;-79
2021/07/04 10:23:23;;;;;;;4.82;3.17;;;22.80;79.20;;;;;;4886892;29;20076;-79
2021/07/04 10:25:50;;;;;;;3.38;2.85;;;22.70;79.00;;;;;;4903738;29;20024;-82
2021/07/04 10:28:27;;;;;;;5.05;2.80;;;22.70;79.40;;;;;;4902036;29;20402;-79
2021/07/04 10:30:53;;;;;;;3.90;2.80;;;22.60;79.30;;;;;;4901170;29;20028;-80
2021/07/04 10:33:34;;;;;;;3.35;2.63;;;22.60;79.30;;;;;;4902762;29;20071;-79
2021/07/04 10:36:10;;;;;;;3.25;2.95;;;22.60;79.80;;;;;;4902086;29;20057;-78
2021/07/04 10:38:55;;;;;;;4.05;2.95;;;22.60;80.30;;;;;;4902196;29;20096;-78
2021/07/04 10:41:35;;;;;;;4.63;3.20;;;22.60;80.90;;;;;;4902744;29;20056;-78
2021/07/04 10:44:10;;;;;;;3.58;2.92;;;22.60;81.00;;;;;;4933881;29;20032;-79
2021/07/04 10:46:45;;;;;;;4.35;2.92;;;22.70;81.30;;;;;;4930753;29;20033;-79
2021/07/04 10:49:12;;;;;;;4.72;2.72;;;22.80;81.90;;;;;;4899102;29;20466;-79
2021/07/04 10:51:54;;;;;;;3.60;2.92;;;22.90;81.40;;;;;;4900512;29;20052;-79
2021/07/04 10:54:38;;;;;;;4.85;3.00;;;22.90;81.60;;;;;;4900966;29;20127;-79
2021/07/04 10:57:09;;;;;;;4.50;2.80;;;22.90;81.90;;;;;;4899151;29;20033;-79
2021/07/04 11:00:14;;;;;;;4.72;3.05;;;22.80;82.10;;;;;;4899742;29;20059;-79
2021/07/04 11:03:01;;;;;;;3.70;2.88;;;22.90;82.40;;;;;;4863727;29;20505;-80
2021/07/04 11:05:36;;;;;;;4.57;2.95;;;22.90;83.20;;;;;;4863686;29;20029;-78
2021/07/04 11:08:01;;;;;;;3.63;2.80;;;22.90;82.80;;;;;;4879206;29;20037;-78
2021/07/04 11:10:32;;;;;;;3.08;2.47;;;22.80;82.30;;;;;;4879259;29;20534;-78
2021/07/04 11:13:34;;;;;;;3.83;2.50;;;22.80;83.40;;;;;;4863270;29;20534;-79
2021/07/04 11:16:22;;;;;;;3.05;2.58;;;22.60;83.70;;;;;;4876444;29;20025;-79
2021/07/04 11:19:05;;;;;;;2.75;2.33;;;22.30;85.20;;;;;;4878227;29;20036;-79
2021/07/04 11:21:52;;;;;;;3.28;2.28;;;22.20;86.90;;;;;;4860930;29;20057;-80
2021/07/04 11:24:24;;;;;;;3.08;2.35;;;22.00;87.40;;;;;;4860835;29;20033;-81
2021/07/04 11:27:15;;;;;;;2.65;2.03;;;22.00;87.60;;;;;;4860945;29;20047;-79
2021/07/04 11:30:19;;;;;;;168.55;98.40;;;21.90;89.00;;;;;;4844780;29;20101;-78
2021/07/04 11:32:45;;;;;;;65.05;37.78;;;21.80;88.90;;;;;;4868333;29;20075;-81
2021/07/04 11:35:11;;;;;;;11.85;7.90;;;21.60;88.70;;;;;;4879327;29;20098;-79
2021/07/04 11:37:38;;;;;;;6.28;4.15;;;21.60;89.20;;;;;;4880021;29;20025;-79
2021/07/04 11:40:05;;;;;;;4.55;2.40;;;21.50;90.00;;;;;;4888732;29;20020;-78
2021/07/04 11:42:31;;;;;;;3.47;2.30;;;21.50;90.00;;;;;;4899506;29;20484;-80
2021/07/04 11:44:57;;;;;;;2.10;1.90;;;21.50;89.80;;;;;;4896786;29;20033;-80
2021/07/04 11:47:22;;;;;;;2.05;1.60;;;21.50;89.40;;;;;;4899055;29;20039;-79
2021/07/04 11:49:48;;;;;;;2.25;1.85;;;21.60;88.10;;;;;;4897971;29;20119;-78
2021/07/04 11:52:21;;;;;;;2.67;1.88;;;21.60;88.30;;;;;;4919027;29;20065;-79
2021/07/04 11:54:47;;;;;;;2.47;1.70;;;21.50;89.50;;;;;;4892656;29;20044;-78
2021/07/04 11:57:30;;;;;;;2.92;2.08;;;21.50;89.80;;;;;;4896198;29;20029;-79
2021/07/04 12:00:01;;;;;;;3.35;2.10;;;21.40;90.00;;;;;;4898866;29;20111;-80
2021/07/04 12:02:27;;;;;;;2.58;1.92;;;21.50;89.40;;;;;;4922774;29;20039;-79
2021/07/04 12:04:54;;;;;;;4.90;2.45;;;21.50;89.90;;;;;;4897692;29;20028;-79
2021/07/04 12:07:25;;;;;;;3.35;2.40;;;21.50;90.20;;;;;;4913721;29;20045;-77
2021/07/04 12:09:55;;;;;;;2.47;1.90;;;21.60;90.40;;;;;;4929506;29;20037;-79
2021/07/04 12:12:30;;;;;;;2.40;2.00;;;21.70;90.50;;;;;;4919117;29;20037;-79
2021/07/04 12:15:08;;;;;;;2.72;2.40;;;21.80;89.30;;;;;;4895005;29;20036;-79
2021/07/04 12:17:48;;;;;;;5.05;2.20;;;22.00;88.90;;;;;;4894466;29;20032;-78
2021/07/04 12:20:17;;;;;;;3.07;1.70;;;22.20;88.60;;;;;;4887577;29;20231;-78
2021/07/04 12:22:50;;;;;;;2.30;1.80;;;22.40;88.30;;;;;;4885233;29;20280;-78
2021/07/04 12:25:22;;;;;;;4.05;1.85;;;22.50;87.10;;;;;;4895282;29;20036;-77
2021/07/04 12:27:56;;;;;;;2.83;2.13;;;22.60;86.60;;;;;;4898317;29;20043;-76
2021/07/04 12:30:24;;;;;;;3.33;1.90;;;22.70;85.70;;;;;;4912654;29;20032;-78
2021/07/04 12:33:06;;;;;;;3.17;2.00;;;22.80;86.30;;;;;;4901342;29;20390;-76
2021/07/04 12:35:34;;;;;;;2.47;1.77;;;22.90;87.20;;;;;;4911502;29;20025;-78
2021/07/04 12:38:03;;;;;;;1.83;1.70;;;23.00;86.80;;;;;;4923211;29;20024;-78
2021/07/04 12:40:48;;;;;;;2.53;1.83;;;23.00;84.70;;;;;;4920952;29;20467;-78
2021/07/04 12:43:16;;;;;;;1.70;1.60;;;23.00;84.20;;;;;;4898080;29;20135;-78
2021/07/04 12:45:50;;;;;;;3.42;1.90;;;23.10;83.80;;;;;;4892882;29;20021;-76
2021/07/04 12:48:18;;;;;;;3.35;1.70;;;23.00;82.40;;;;;;4887404;29;20037;-77
2021/07/04 12:51:02;;;;;;;2.45;1.40;;;23.00;83.80;;;;;;4917376;29;20041;-78
2021/07/04 12:53:34;;;;;;;1.92;1.70;;;23.00;84.70;;;;;;4862775;29;20047;-78
2021/07/04 12:55:59;;;;;;;2.67;2.05;;;23.00;84.60;;;;;;4885406;29;20032;-77